Atwood, Colorado
Current Conditions -  °F | °C
As of 4:30 PM on Saturday 20 Dec 2014 (Local Time) from KSTK Reporting Station
Overcast Overcast  
Wind Chill: 32°   Ceiling: 9500
Heat Index: 32°   Visibility: 10mi
Dew Point: 30°   Wind: 3mph
Humidity: 93%   Direction: 250°WSW
Pressure: 29.94"   Gusts: NA
Location:  40.55°N, 103.27°W
Report Text: KSTK 202330Z AUTO 25003KT 10SM OVC095 00/M01 A2994 RMK AO2
Loading
Personal Weather Stations






























Interactive Weather Map New forecast layout! Learn more

10-Day Weather Forecast

Advertisements
Track Severe Weather on mobile